Little Valley, Nevada Weather observations

Data are for 10 minute period ending at time listed.
 Day   Time    Ave.   Ave.  Ave.  Vector   Max.   Total    Solar   
  of    of     Air    Rel.  Wind   Wind    Wind  Precip.   Rad.    
Year   Day     Temp.  Hum.  Speed  Dir.    Gust                    
2015   (PST)    F      %     mph   deg.    mph     in.     W/m2    
------------------------------------------------------------------- 
  89   17:00   60.0    29   12.0   259     22.0    7.62     298  
  89   18:00   58.0    30   12.0   256     24.0    7.62      77  
  89   19:00   56.0    36   14.0   258     25.0    7.62      14  
  89   20:00   55.0    40   13.0   261     25.0    7.62       0  
  89   21:00   53.0    45   11.0   259     23.0    7.62       0  
  89   22:00   52.0    46   12.0   255     23.0    7.62       0  
  89   23:00   52.0    38   13.0   257     24.0    7.62       0  
  90    0:00   51.0    36   12.0   261     24.0    7.62       0  
  90    1:00   49.0    41   12.0   262     27.0    7.62       0  
  90    2:00   49.0    40   11.0   271     28.0    7.62       0  
  90    3:00   49.0    36   12.0   265     24.0    7.62       0  
  90    4:00   48.0    38   13.0   267     25.0    7.62       0  
  90    5:00   46.0    32   12.0   272     24.0    7.62       0  
  90    6:00   47.0    19   12.0   266     22.0    7.62       0  
  90    7:00   46.0    22    9.0   278     22.0    7.62      11  
  90    8:00   49.0    19   10.0   270     28.0    7.62     214  
  90    9:00   50.0    20    7.0   271     34.0    7.62     457  
  90   10:00   50.0    24   11.0   164     31.0    7.62     656  
  90   11:00   52.0    28    7.0   222     33.0    7.62     812  
  90   12:00   51.0    31   12.0   264     41.0    7.62     902  
  90   13:00   52.0    25   13.0   254     36.0    7.62     929  
  90   14:00   53.0    21   11.0   258     31.0    7.62     878  
  90   15:00   52.0    23   12.0   237     30.0    7.62     776  
  90   16:00   50.0    26   13.0   241     35.0    7.62     614  

Return to Little Valley, Nevada graphs page.


Western Regional Climate Center,wrcc@dri.edu